Station Historical Data
Daily Summary for October 22, 2017 Units:  English    Metric   Both
« Previous Day
Next Day »
Daily Weekly Monthly Yearly Custom
  High: Low: Average:
Temperature: 76.2 °F 55.6 °F 65.6 °F
Dew Point: 64.9 °F 52.1 °F 59.1 °F
Humidity: 91% 66% 80%
Wind Speed: 28.8mph 2.3mph 9.7mph
Wind Gust: 29.0mph - -
Wind- - East
Pressure: 30.30 in 30.13 in -
Precipitation: 0.00 in    
Historical Graphs
 
 
Tabular Data for October 22, 2017
Time Temperature Dew Point Pressure Wind Wind Speed Wind Gust Humidity Rainfall Rate (Hourly) Conditions
00:03 59.5 °F 53.7 °F 30.30 in East 4.6 mph 4.6 mph 81% 0.00 in CLR
00:14 59.4 °F 53.9 °F 30.30 in East 4.6 mph 4.6 mph 82% 0.00 in CLR
00:19 59.3 °F 53.8 °F 30.29 in East 4.6 mph 4.6 mph 82% 0.00 in CLR
00:24 59.2 °F 53.7 °F 30.30 in East 4.6 mph 4.6 mph 82% 0.00 in CLR
00:29 59.1 °F 53.6 °F 30.30 in East 4.6 mph 4.6 mph 82% 0.00 in CLR
00:34 59.0 °F 53.5 °F 30.29 in East 4.6 mph 4.6 mph 82% 0.00 in CLR
00:35 59.0 °F 53.5 °F 30.29 in East 5.0 mph 5.0 mph 82% 0.00 in CLR
00:40 58.8 °F 53.6 °F 30.29 in East 4.6 mph 4.6 mph 83% 0.00 in CLR
00:45 58.6 °F 53.5 °F 30.29 in East 5.0 mph 5.0 mph 83% 0.00 in CLR
00:50 58.5 °F 53.4 °F 30.29 in East 5.0 mph 5.0 mph 83% 0.00 in CLR
00:55 58.4 °F 53.3 °F 30.29 in East 5.0 mph 5.0 mph 83% 0.00 in CLR
01:00 58.3 °F 53.2 °F 30.29 in East 5.0 mph 5.0 mph 83% 0.00 in CLR
01:05 58.2 °F 53.4 °F 30.29 in ENE 3.5 mph 3.5 mph 84% 0.00 in CLR
01:10 58.3 °F 53.2 °F 30.29 in ENE 3.5 mph 3.5 mph 83% 0.00 in CLR
01:15 58.5 °F 53.4 °F 30.28 in ENE 3.5 mph 3.5 mph 83% 0.00 in CLR
01:20 58.6 °F 53.1 °F 30.28 in ENE 3.5 mph 3.5 mph 82% 0.00 in CLR
01:25 58.6 °F 53.1 °F 30.28 in ENE 3.5 mph 3.5 mph 82% 0.00 in CLR
01:30 58.5 °F 53.0 °F 30.28 in ENE 3.5 mph 3.5 mph 82% 0.00 in CLR
01:35 58.4 °F 53.3 °F 30.28 in ENE 3.5 mph 3.5 mph 83% 0.00 in CLR
01:40 58.2 °F 53.1 °F 30.28 in ENE 3.5 mph 3.5 mph 83% 0.00 in CLR
01:45 58.0 °F 52.9 °F 30.28 in ENE 3.5 mph 3.5 mph 83% 0.00 in CLR
01:50 57.9 °F 53.1 °F 30.29 in ENE 3.5 mph 3.5 mph 84% 0.00 in CLR
01:55 57.9 °F 53.1 °F 30.29 in ENE 3.5 mph 3.5 mph 84% 0.00 in CLR
02:00 57.8 °F 53.0 °F 30.29 in ENE 3.5 mph 3.5 mph 84% 0.00 in CLR
02:05 57.7 °F 52.9 °F 30.29 in ENE 3.5 mph 3.5 mph 84% 0.00 in CLR
02:10 57.6 °F 52.8 °F 30.29 in ENE 3.5 mph 3.5 mph 84% 0.00 in CLR
02:15 57.6 °F 52.8 °F 30.28 in ENE 3.5 mph 3.5 mph 84% 0.00 in CLR
02:20 57.5 °F 52.7 °F 30.29 in ENE 3.5 mph 3.5 mph 84% 0.00 in CLR
02:25 57.5 °F 52.7 °F 30.28 in ENE 3.5 mph 3.5 mph 84% 0.00 in CLR
02:31 57.5 °F 53.0 °F 30.28 in ENE 3.5 mph 3.5 mph 85% 0.00 in CLR
02:36 57.4 °F 52.9 °F 30.28 in ENE 3.5 mph 3.5 mph 85% 0.00 in CLR
02:41 57.4 °F 52.9 °F 30.28 in ENE 3.5 mph 3.5 mph 85% 0.00 in CLR
02:44 57.4 °F 52.9 °F 30.28 in ENE 3.5 mph 3.5 mph 85% 0.00 in CLR
02:49 57.4 °F 52.9 °F 30.28 in ENE 3.5 mph 3.5 mph 85% 0.00 in CLR
02:54 57.3 °F 52.8 °F 30.28 in ENE 3.5 mph 3.5 mph 85% 0.00 in CLR
03:00 57.3 °F 52.8 °F 30.27 in ENE 3.0 mph 3.0 mph 85% 0.00 in CLR
03:05 57.3 °F 52.8 °F 30.28 in ENE 3.0 mph 3.0 mph 85% 0.00 in CLR
03:10 57.4 °F 52.6 °F 30.27 in ENE 3.0 mph 3.0 mph 84% 0.00 in CLR
03:11 57.4 °F 52.6 °F 30.27 in ENE 3.5 mph 3.5 mph 84% 0.00 in CLR
03:16 57.4 °F 52.9 °F 30.27 in ENE 3.5 mph 3.5 mph 85% 0.00 in CLR
03:21 57.4 °F 52.6 °F 30.27 in ENE 3.5 mph 3.5 mph 84% 0.00 in CLR
03:26 57.4 °F 52.6 °F 30.27 in ENE 3.5 mph 3.5 mph 84% 0.00 in CLR
03:31 57.4 °F 52.6 °F 30.27 in ENE 3.5 mph 3.5 mph 84% 0.00 in CLR
03:36 57.4 °F 52.6 °F 30.27 in ENE 3.5 mph 3.5 mph 84% 0.00 in CLR
03:41 57.5 °F 52.7 °F 30.27 in ENE 3.5 mph 3.5 mph 84% 0.00 in CLR
03:46 57.5 °F 52.4 °F 30.26 in ENE 3.5 mph 3.5 mph 83% 0.00 in CLR
03:51 57.5 °F 52.4 °F 30.26 in ENE 3.5 mph 3.5 mph 83% 0.00 in CLR
03:56 57.5 °F 52.4 °F 30.26 in ENE 3.5 mph 3.5 mph 83% 0.00 in CLR
04:01 57.6 °F 52.5 °F 30.26 in ENE 3.5 mph 3.5 mph 83% 0.00 in CLR
04:06 57.5 °F 52.7 °F 30.27 in ENE 3.5 mph 3.5 mph 84% 0.00 in CLR
04:11 57.4 °F 52.6 °F 30.26 in ENE 3.5 mph 3.5 mph 84% 0.00 in CLR
04:16 57.3 °F 52.5 °F 30.26 in ENE 3.5 mph 3.5 mph 84% 0.00 in CLR
04:21 57.3 °F 52.5 °F 30.26 in ENE 3.5 mph 3.5 mph 84% 0.00 in CLR
04:26 57.2 °F 52.7 °F 30.26 in ENE 3.5 mph 3.5 mph 85% 0.00 in CLR
04:32 57.1 °F 52.3 °F 30.26 in ENE 3.5 mph 3.5 mph 84% 0.00 in CLR
04:37 57.1 °F 52.3 °F 30.26 in ENE 3.5 mph 3.5 mph 84% 0.00 in CLR
04:42 57.1 °F 52.3 °F 30.26 in ENE 3.5 mph 3.5 mph 84% 0.00 in CLR
04:47 57.1 °F 52.6 °F 30.26 in ENE 3.5 mph 3.5 mph 85% 0.00 in CLR
04:52 56.9 °F 52.4 °F 30.26 in ENE 3.5 mph 3.5 mph 85% 0.00 in CLR
04:57 56.8 °F 52.3 °F 30.25 in ENE 3.5 mph 3.5 mph 85% 0.00 in CLR
05:02 56.6 °F 52.5 °F 30.25 in ENE 3.5 mph 3.5 mph 86% 0.00 in CLR
05:07 56.4 °F 52.3 °F 30.25 in ENE 3.5 mph 3.5 mph 86% 0.00 in CLR
05:12 56.2 °F 52.1 °F 30.26 in ENE 3.5 mph 3.5 mph 86% 0.00 in CLR
05:17 56.1 °F 52.3 °F 30.25 in ENE 3.5 mph 3.5 mph 87% 0.00 in CLR
05:22 56.1 °F 52.3 °F 30.25 in ENE 3.5 mph 3.5 mph 87% 0.00 in CLR
05:27 56.1 °F 52.3 °F 30.25 in ENE 3.5 mph 3.5 mph 87% 0.00 in CLR
05:32 56.1 °F 52.3 °F 30.26 in ENE 3.5 mph 3.5 mph 87% 0.00 in CLR
05:37 56.1 °F 52.3 °F 30.26 in ENE 3.5 mph 3.5 mph 87% 0.00 in CLR
05:42 56.1 °F 52.3 °F 30.26 in ENE 3.5 mph 3.5 mph 87% 0.00 in CLR
05:47 56.1 °F 52.3 °F 30.26 in ENE 3.5 mph 3.5 mph 87% 0.00 in CLR
05:52 56.0 °F 52.2 °F 30.26 in ENE 3.5 mph 3.5 mph 87% 0.00 in CLR
05:57 56.0 °F 52.5 °F 30.26 in ENE 3.5 mph 3.5 mph 88% 0.00 in CLR
06:02 55.9 °F 52.4 °F 30.26 in ENE 3.5 mph 3.5 mph 88% 0.00 in CLR
06:07 55.9 °F 52.4 °F 30.26 in ENE 3.5 mph 3.5 mph 88% 0.00 in CLR
06:12 55.9 °F 52.4 °F 30.26 in ENE 3.5 mph 3.5 mph 88% 0.00 in CLR
06:17 56.1 °F 52.6 °F 30.26 in ENE 3.5 mph 3.5 mph 88% 0.00 in CLR
06:23 56.1 °F 52.6 °F 30.26 in ENE 3.5 mph 3.5 mph 88% 0.00 in CLR
06:28 56.2 °F 52.7 °F 30.26 in ENE 3.5 mph 3.5 mph 88% 0.00 in CLR
06:33 56.2 °F 52.4 °F 30.26 in ENE 3.5 mph 3.5 mph 87% 0.00 in CLR
06:38 56.1 °F 52.3 °F 30.27 in ENE 3.5 mph 3.5 mph 87% 0.00 in CLR
06:43 56.1 °F 52.6 °F 30.26 in ENE 3.5 mph 3.5 mph 88% 0.00 in CLR
06:48 56.1 °F 52.6 °F 30.26 in ENE 3.5 mph 3.5 mph 88% 0.00 in CLR
06:53 56.2 °F 52.7 °F 30.27 in ENE 3.5 mph 3.5 mph 88% 0.00 in CLR
06:58 56.1 °F 52.6 °F 30.26 in ENE 3.5 mph 3.5 mph 88% 0.00 in CLR
07:03 56.1 °F 52.6 °F 30.26 in ENE 3.5 mph 3.5 mph 88% 0.00 in CLR
07:08 56.0 °F 52.5 °F 30.26 in ENE 3.5 mph 3.5 mph 88% 0.00 in CLR
07:13 55.9 °F 52.4 °F 30.26 in East 3.5 mph 3.5 mph 88% 0.00 in FEW
07:18 55.9 °F 52.4 °F 30.27 in East 3.5 mph 3.5 mph 88% 0.00 in FEW
07:23 55.9 °F 52.4 °F 30.27 in East 3.5 mph 3.5 mph 88% 0.00 in FEW
07:28 55.8 °F 52.6 °F 30.27 in East 3.5 mph 3.5 mph 89% 0.00 in FEW
07:33 55.8 °F 52.6 °F 30.27 in East 3.5 mph 3.5 mph 89% 0.00 in FEW
07:38 55.7 °F 52.5 °F 30.27 in East 3.5 mph 3.5 mph 89% 0.00 in FEW
07:48 55.6 °F 52.4 °F 30.28 in East 3.5 mph 3.5 mph 89% 0.00 in FEW
07:53 55.6 °F 52.4 °F 30.28 in East 3.5 mph 3.5 mph 89% 0.00 in FEW
07:58 55.6 °F 52.7 °F 30.28 in East 3.5 mph 3.5 mph 90% 0.00 in FEW
08:04 55.6 °F 52.7 °F 30.28 in NE 2.3 mph 2.3 mph 90% 0.00 in BKN
08:09 55.8 °F 52.9 °F 30.28 in NE 2.3 mph 2.3 mph 90% 0.00 in BKN
08:14 56.1 °F 53.5 °F 30.28 in NE 2.3 mph 2.3 mph 91% 0.00 in BKN
08:19 56.4 °F 53.5 °F 30.29 in NE 2.3 mph 2.3 mph 90% 0.00 in BKN
08:24 56.7 °F 53.8 °F 30.29 in NE 2.3 mph 2.3 mph 90% 0.00 in BKN
08:29 57.1 °F 54.2 °F 30.29 in NE 2.3 mph 2.3 mph 90% 0.00 in BKN
08:34 57.5 °F 54.3 °F 30.28 in NE 2.3 mph 2.3 mph 89% 0.00 in BKN
08:39 57.7 °F 54.5 °F 30.28 in NE 2.3 mph 2.3 mph 89% 0.00 in BKN
08:44 58.0 °F 54.8 °F 30.28 in NE 2.3 mph 2.3 mph 89% 0.00 in BKN
08:49 58.2 °F 55.0 °F 30.28 in NE 2.3 mph 2.3 mph 89% 0.00 in BKN
08:54 58.5 °F 55.3 °F 30.28 in NE 2.3 mph 2.3 mph 89% 0.00 in BKN
08:59 58.8 °F 55.6 °F 30.28 in NE 2.3 mph 2.3 mph 89% 0.00 in BKN
09:04 59.2 °F 56.0 °F 30.29 in ENE 4.6 mph 4.6 mph 89% 0.00 in BKN
09:09 59.5 °F 55.9 °F 30.29 in ENE 4.6 mph 4.6 mph 88% 0.00 in BKN
09:14 59.7 °F 56.1 °F 30.29 in ENE 4.6 mph 4.6 mph 88% 0.00 in BKN
09:19 59.9 °F 56.3 °F 30.29 in ENE 4.6 mph 4.6 mph 88% 0.00 in BKN
09:24 60.1 °F 56.5 °F 30.29 in ENE 4.6 mph 4.6 mph 88% 0.00 in BKN
09:29 60.4 °F 56.8 °F 30.29 in ENE 4.6 mph 4.6 mph 88% 0.00 in BKN
09:34 60.7 °F 57.1 °F 30.29 in ENE 4.6 mph 4.6 mph 88% 0.00 in BKN
09:40 60.9 °F 57.4 °F 30.29 in ENE 5.0 mph 5.0 mph 88% 0.00 in BKN
09:45 61.3 °F 57.4 °F 30.29 in ENE 4.6 mph 4.6 mph 87% 0.00 in BKN
09:50 61.5 °F 57.9 °F 30.29 in ENE 5.0 mph 5.0 mph 88% 0.00 in BKN
09:55 61.8 °F 57.9 °F 30.29 in ENE 5.0 mph 5.0 mph 87% 0.00 in BKN
10:00 62.1 °F 58.2 °F 30.29 in ENE 5.0 mph 5.0 mph 87% 0.00 in BKN
10:05 62.4 °F 58.5 °F 30.28 in East 10.4 mph 10.4 mph 87% 0.00 in BKN
10:10 62.8 °F 58.9 °F 30.28 in East 10.4 mph 10.4 mph 87% 0.00 in BKN
10:15 63.0 °F 58.7 °F 30.27 in East 10.4 mph 10.4 mph 86% 0.00 in BKN
10:20 63.3 °F 59.4 °F 30.27 in East 10.4 mph 10.4 mph 87% 0.00 in BKN
10:25 63.7 °F 59.4 °F 30.27 in East 10.4 mph 10.4 mph 86% 0.00 in BKN
10:26 63.8 °F 59.5 °F 30.27 in East 10.4 mph 10.4 mph 86% 0.00 in BKN
10:31 64.3 °F 59.7 °F 30.27 in East 10.4 mph 10.4 mph 85% 0.00 in BKN
10:36 65.0 °F 60.0 °F 30.27 in East 10.4 mph 10.4 mph 84% 0.00 in BKN
10:41 65.4 °F 60.1 °F 30.26 in East 10.4 mph 10.4 mph 83% 0.00 in BKN
10:46 65.8 °F 60.8 °F 30.27 in East 10.4 mph 10.4 mph 84% 0.00 in BKN
10:51 66.4 °F 61.1 °F 30.27 in East 10.4 mph 10.4 mph 83% 0.00 in BKN
10:56 66.7 °F 61.4 °F 30.27 in East 10.4 mph 10.4 mph 83% 0.00 in BKN
11:01 67.1 °F 61.4 °F 30.26 in ESE 13.8 mph 13.8 mph 82% 0.00 in BKN
11:06 67.5 °F 61.5 °F 30.26 in ESE 13.8 mph 13.8 mph 81% 0.00 in BKN
11:11 67.9 °F 61.9 °F 30.26 in ESE 13.8 mph 13.8 mph 81% 0.00 in BKN
11:16 68.0 °F 61.6 °F 30.26 in ESE 13.8 mph 13.8 mph 80% 0.00 in BKN
11:27 68.6 °F 62.2 °F 30.26 in ESE 13.8 mph 13.8 mph 80% 0.00 in BKN
11:32 68.8 °F 62.0 °F 30.26 in ESE 13.8 mph 13.8 mph 79% 0.00 in BKN
11:37 69.0 °F 62.2 °F 30.26 in ESE 13.8 mph 13.8 mph 79% 0.00 in BKN
11:42 69.3 °F 62.1 °F 30.26 in ESE 13.8 mph 13.8 mph 78% 0.00 in BKN
11:47 69.7 °F 62.5 °F 30.26 in ESE 13.8 mph 13.8 mph 78% 0.00 in BKN
11:52 70.1 °F 62.6 °F 30.26 in ESE 13.8 mph 13.8 mph 77% 0.00 in BKN
11:57 70.3 °F 62.7 °F 30.26 in ESE 13.8 mph 13.8 mph 77% 0.00 in BKN
12:02 70.6 °F 63.0 °F 30.25 in East 13.8 mph 13.8 mph 77% 0.00 in BKN
12:07 71.3 °F 63.3 °F 30.25 in East 13.8 mph 13.8 mph 76% 0.00 in BKN
12:12 71.6 °F 62.9 °F 30.25 in East 13.8 mph 13.8 mph 74% 0.00 in BKN
12:17 71.9 °F 63.2 °F 30.25 in East 13.8 mph 13.8 mph 74% 0.00 in BKN
12:22 72.4 °F 63.6 °F 30.24 in East 13.8 mph 13.8 mph 74% 0.00 in BKN
12:27 72.7 °F 63.5 °F 30.24 in East 13.8 mph 13.8 mph 73% 0.00 in BKN
12:32 73.1 °F 64.3 °F 30.24 in East 13.8 mph 13.8 mph 74% 0.00 in BKN
12:37 73.8 °F 64.6 °F 30.23 in East 13.8 mph 13.8 mph 73% 0.00 in BKN
12:42 74.0 °F 64.4 °F 30.23 in East 13.8 mph 13.8 mph 72% 0.00 in BKN
12:47 73.8 °F 63.4 °F 30.23 in East 13.8 mph 13.8 mph 70% 0.00 in BKN
12:49 73.7 °F 64.1 °F 30.23 in East 13.8 mph 13.8 mph 72% 0.00 in BKN
12:54 74.3 °F 64.3 °F 30.23 in East 13.8 mph 13.8 mph 71% 0.00 in BKN
12:59 74.6 °F 63.8 °F 30.23 in East 13.8 mph 13.8 mph 69% 0.00 in BKN
13:04 74.2 °F 64.2 °F 30.23 in ESE 16.1 mph 16.1 mph 71% 0.00 in BKN
13:09 74.0 °F 63.6 °F 30.23 in ESE 16.1 mph 16.1 mph 70% 0.00 in BKN
13:14 74.1 °F 63.7 °F 30.23 in ESE 16.1 mph 16.1 mph 70% 0.00 in BKN
13:19 73.8 °F 63.8 °F 30.22 in ESE 16.1 mph 16.1 mph 71% 0.00 in BKN
13:24 73.5 °F 63.5 °F 30.22 in ESE 16.1 mph 16.1 mph 71% 0.00 in BKN
13:29 73.6 °F 64.0 °F 30.21 in ESE 16.1 mph 16.1 mph 72% 0.00 in BKN
13:34 74.0 °F 64.0 °F 30.22 in ESE 16.1 mph 16.1 mph 71% 0.00 in BKN
13:40 74.0 °F 64.0 °F 30.22 in ESE 16.0 mph 16.0 mph 71% 0.00 in BKN
13:45 74.1 °F 63.7 °F 30.21 in ESE 16.0 mph 16.0 mph 70% 0.00 in BKN
13:50 73.8 °F 63.8 °F 30.21 in ESE 16.0 mph 16.0 mph 71% 0.00 in BKN
13:55 73.9 °F 64.3 °F 30.21 in ESE 14.0 mph 16.0 mph 72% 0.00 in BKN
14:00 74.0 °F 64.4 °F 30.20 in ESE 14.0 mph 14.0 mph 72% 0.00 in BKN
14:05 74.3 °F 63.9 °F 30.20 in East 12.7 mph 12.7 mph 70% 0.00 in BKN
14:10 74.0 °F 64.0 °F 30.20 in East 13.0 mph 13.0 mph 71% 0.00 in BKN
14:15 74.4 °F 64.0 °F 30.20 in East 13.0 mph 13.0 mph 70% 0.00 in BKN
14:20 74.8 °F 64.4 °F 30.20 in East 13.0 mph 13.0 mph 70% 0.00 in BKN
14:25 75.4 °F 64.9 °F 30.20 in East 13.0 mph 13.0 mph 70% 0.00 in BKN
14:30 75.9 °F 64.6 °F 30.19 in East 13.0 mph 13.0 mph 68% 0.00 in BKN
14:35 75.9 °F 64.2 °F 30.19 in East 12.7 mph 12.7 mph 67% 0.00 in BKN
14:40 75.6 °F 64.3 °F 30.18 in East 12.7 mph 12.7 mph 68% 0.00 in BKN
14:45 75.7 °F 64.4 °F 30.18 in East 12.7 mph 12.7 mph 68% 0.00 in BKN
14:50 75.8 °F 64.5 °F 30.18 in East 12.7 mph 12.7 mph 68% 0.00 in BKN
14:55 75.7 °F 64.4 °F 30.18 in ESE 8.1 mph 8.1 mph 68% 0.00 in BKN
15:05 76.1 °F 63.9 °F 30.17 in East 12.7 mph 12.7 mph 66% 0.00 in BKN
15:10 76.2 °F 64.4 °F 30.18 in East 12.7 mph 12.7 mph 67% 0.00 in BKN
15:15 76.2 °F 64.0 °F 30.17 in East 12.7 mph 12.7 mph 66% 0.00 in BKN
15:20 75.7 °F 64.4 °F 30.17 in East 12.7 mph 12.7 mph 68% 0.00 in BKN
15:25 75.3 °F 64.0 °F 30.17 in East 12.7 mph 12.7 mph 68% 0.00 in BKN
15:30 75.2 °F 63.9 °F 30.17 in East 12.7 mph 12.7 mph 68% 0.00 in BKN
15:35 75.3 °F 64.0 °F 30.17 in East 12.7 mph 12.7 mph 68% 0.00 in BKN
15:40 75.4 °F 64.1 °F 30.16 in East 12.7 mph 12.7 mph 68% 0.00 in BKN
15:45 75.4 °F 64.5 °F 30.16 in East 12.7 mph 12.7 mph 69% 0.00 in BKN
15:50 75.4 °F 64.1 °F 30.16 in East 12.7 mph 12.7 mph 68% 0.00 in BKN
15:55 75.5 °F 64.6 °F 30.16 in East 12.7 mph 12.7 mph 69% 0.00 in BKN
16:01 75.4 °F 64.1 °F 30.16 in East 12.7 mph 12.7 mph 68% 0.00 in BKN
16:06 75.5 °F 64.2 °F 30.15 in East 11.5 mph 11.5 mph 68% 0.00 in BKN
16:11 75.4 °F 64.1 °F 30.15 in East 11.5 mph 11.5 mph 68% 0.00 in BKN
16:16 75.5 °F 64.2 °F 30.15 in East 11.5 mph 11.5 mph 68% 0.00 in BKN
16:21 75.5 °F 64.2 °F 30.15 in East 11.5 mph 11.5 mph 68% 0.00 in BKN
16:26 75.7 °F 64.4 °F 30.16 in East 11.5 mph 11.5 mph 68% 0.00 in BKN
16:31 75.7 °F 64.4 °F 30.16 in East 11.5 mph 11.5 mph 68% 0.00 in BKN
16:36 75.5 °F 63.8 °F 30.15 in East 11.5 mph 11.5 mph 67% 0.00 in BKN
16:41 75.3 °F 63.6 °F 30.15 in East 11.5 mph 11.5 mph 67% 0.00 in BKN
16:46 75.0 °F 63.7 °F 30.15 in East 11.5 mph 11.5 mph 68% 0.00 in BKN
16:51 74.8 °F 63.9 °F 30.16 in East 11.5 mph 11.5 mph 69% 0.00 in BKN
16:56 74.7 °F 64.3 °F 30.16 in East 11.5 mph 11.5 mph 70% 0.00 in BKN
17:01 74.6 °F 63.8 °F 30.15 in East 11.5 mph 11.5 mph 69% 0.00 in OVC
17:06 74.5 °F 63.7 °F 30.15 in East 8.1 mph 8.1 mph 69% 0.00 in OVC
17:11 74.5 °F 63.7 °F 30.15 in East 8.1 mph 8.1 mph 69% 0.00 in OVC
17:16 74.5 °F 63.7 °F 30.15 in East 8.1 mph 8.1 mph 69% 0.00 in OVC
17:21 74.5 °F 63.7 °F 30.15 in East 8.1 mph 8.1 mph 69% 0.00 in OVC
17:26 74.4 °F 64.0 °F 30.15 in East 8.1 mph 8.1 mph 70% 0.00 in OVC
17:32 74.2 °F 63.8 °F 30.14 in East 8.1 mph 8.1 mph 70% 0.00 in OVC
17:37 74.1 °F 63.7 °F 30.14 in East 8.1 mph 8.1 mph 70% 0.00 in OVC
17:42 74.0 °F 63.6 °F 30.14 in East 8.1 mph 8.1 mph 70% 0.00 in OVC
17:47 74.0 °F 63.6 °F 30.14 in East 8.1 mph 8.1 mph 70% 0.00 in OVC
17:52 73.9 °F 63.5 °F 30.14 in East 8.1 mph 8.1 mph 70% 0.00 in OVC
17:57 73.8 °F 63.8 °F 30.14 in East 8.1 mph 8.1 mph 71% 0.00 in OVC
18:02 73.6 °F 63.6 °F 30.14 in East 9.2 mph 9.2 mph 71% 0.00 in OVC
18:07 73.5 °F 63.5 °F 30.13 in East 9.2 mph 9.2 mph 71% 0.00 in OVC
18:12 73.3 °F 63.3 °F 30.13 in East 9.2 mph 9.2 mph 71% 0.00 in OVC
18:17 73.1 °F 63.5 °F 30.13 in East 9.2 mph 9.2 mph 72% 0.00 in OVC
18:22 73.0 °F 63.4 °F 30.13 in East 9.2 mph 9.2 mph 72% 0.00 in OVC
18:27 72.7 °F 63.1 °F 30.13 in East 9.2 mph 9.2 mph 72% 0.00 in OVC
18:28 72.7 °F 63.1 °F 30.13 in East 9.2 mph 9.2 mph 72% 0.00 in OVC
18:34 72.4 °F 63.3 °F 30.13 in East 9.2 mph 9.2 mph 73% 0.00 in OVC
18:39 72.3 °F 63.2 °F 30.13 in East 9.2 mph 9.2 mph 73% 0.00 in OVC
18:44 72.2 °F 63.1 °F 30.13 in East 9.2 mph 9.2 mph 73% 0.00 in OVC
18:49 72.0 °F 62.9 °F 30.13 in East 9.2 mph 9.2 mph 73% 0.00 in OVC
18:54 71.8 °F 62.7 °F 30.13 in East 9.2 mph 9.2 mph 73% 0.00 in OVC
18:59 71.8 °F 62.7 °F 30.13 in East 9.2 mph 9.2 mph 73% 0.00 in OVC
19:04 71.7 °F 63.0 °F 30.13 in East 8.1 mph 8.1 mph 74% 0.00 in OVC
19:09 71.6 °F 62.5 °F 30.13 in East 8.1 mph 8.1 mph 73% 0.00 in OVC
19:14 71.6 °F 62.9 °F 30.13 in East 8.1 mph 8.1 mph 74% 0.00 in OVC
19:19 71.4 °F 62.7 °F 30.13 in East 8.1 mph 8.1 mph 74% 0.00 in OVC
19:24 71.6 °F 62.9 °F 30.13 in East 8.1 mph 8.1 mph 74% 0.00 in OVC
19:29 71.7 °F 63.0 °F 30.13 in East 8.1 mph 8.1 mph 74% 0.00 in OVC
19:34 71.6 °F 63.3 °F 30.14 in East 8.1 mph 8.1 mph 75% 0.00 in OVC
19:39 71.5 °F 63.2 °F 30.14 in East 8.1 mph 8.1 mph 75% 0.00 in OVC
19:44 71.4 °F 63.4 °F 30.13 in East 8.1 mph 8.1 mph 76% 0.00 in OVC
19:49 71.3 °F 63.3 °F 30.13 in East 8.1 mph 8.1 mph 76% 0.00 in OVC
19:54 71.1 °F 63.5 °F 30.13 in East 8.1 mph 8.1 mph 77% 0.00 in OVC
19:59 70.9 °F 63.3 °F 30.13 in East 8.1 mph 8.1 mph 77% 0.00 in OVC
20:04 70.7 °F 63.1 °F 30.14 in ESE 27.6 mph 27.6 mph 77% 0.00 in OVC
20:09 70.5 °F 63.3 °F 30.14 in ESE 27.6 mph 27.6 mph 78% 0.00 in OVC
20:14 70.2 °F 63.4 °F 30.14 in ESE 27.6 mph 27.6 mph 79% 0.00 in OVC
20:19 70.1 °F 63.3 °F 30.14 in ESE 27.6 mph 27.6 mph 79% 0.00 in OVC
20:24 69.9 °F 63.4 °F 30.14 in ESE 27.6 mph 27.6 mph 80% 0.00 in OVC
20:29 69.8 °F 63.3 °F 30.14 in ESE 27.6 mph 27.6 mph 80% 0.00 in OVC
20:34 69.7 °F 63.3 °F 30.14 in ESE 27.6 mph 27.6 mph 80% 0.00 in OVC
20:39 69.6 °F 63.5 °F 30.14 in ESE 27.6 mph 27.6 mph 81% 0.00 in OVC
20:44 69.5 °F 63.4 °F 30.14 in ESE 27.6 mph 27.6 mph 81% 0.00 in OVC
20:49 69.4 °F 63.3 °F 30.14 in ESE 27.6 mph 27.6 mph 81% 0.00 in OVC
20:54 69.3 °F 63.2 °F 30.14 in East 12.7 mph 12.7 mph 81% 0.00 in BKN
20:59 69.2 °F 63.5 °F 30.14 in East 12.7 mph 12.7 mph 82% 0.00 in BKN
21:04 69.1 °F 63.4 °F 30.15 in East 28.8 mph 28.8 mph 82% 0.00 in CLR
21:09 69.1 °F 63.4 °F 30.15 in East 28.8 mph 28.8 mph 82% 0.00 in CLR
21:15 69.0 °F 63.3 °F 30.15 in East 16.0 mph 29.0 mph 82% 0.00 in CLR
21:20 69.0 °F 63.3 °F 30.14 in East 16.0 mph 29.0 mph 82% 0.00 in CLR
21:25 68.9 °F 63.2 °F 30.14 in East 16.0 mph 29.0 mph 82% 0.00 in CLR
21:30 68.9 °F 63.5 °F 30.14 in East 16.0 mph 29.0 mph 83% 0.00 in CLR
21:35 68.8 °F 63.4 °F 30.14 in East 16.0 mph 29.0 mph 83% 0.00 in CLR
21:40 68.7 °F 63.3 °F 30.14 in East 28.8 mph 28.8 mph 83% 0.00 in CLR
21:45 68.6 °F 63.2 °F 30.14 in East 16.0 mph 29.0 mph 83% 0.00 in CLR
21:50 68.6 °F 63.6 °F 30.14 in East 28.8 mph 28.8 mph 84% 0.00 in CLR
21:55 68.5 °F 63.5 °F 30.14 in East 16.0 mph 29.0 mph 84% 0.00 in CLR
22:00 68.4 °F 63.4 °F 30.14 in East 28.8 mph 28.8 mph 84% 0.00 in CLR
22:05 68.4 °F 63.4 °F 30.14 in East 14.0 mph 29.0 mph 84% 0.00 in BKN
22:10 68.4 °F 63.4 °F 30.14 in East 14.0 mph 28.0 mph 84% 0.00 in BKN
22:15 68.4 °F 63.4 °F 30.14 in East 14.0 mph 28.0 mph 84% 0.00 in BKN
22:20 68.3 °F 63.3 °F 30.14 in East 14.0 mph 28.0 mph 84% 0.00 in BKN
22:25 68.2 °F 63.5 °F 30.14 in ESE 17.0 mph 28.0 mph 85% 0.00 in OVC
22:30 68.2 °F 63.5 °F 30.15 in ESE 17.0 mph 26.0 mph 85% 0.00 in OVC
22:35 68.2 °F 63.5 °F 30.15 in ESE 26.5 mph 26.5 mph 85% 0.00 in OVC
22:40 68.1 °F 63.4 °F 30.15 in ESE 26.5 mph 26.5 mph 85% 0.00 in OVC
22:50 68.1 °F 63.4 °F 30.15 in ESE 26.5 mph 26.5 mph 85% 0.00 in OVC
22:55 68.1 °F 63.4 °F 30.16 in ESE 26.5 mph 26.5 mph 85% 0.00 in OVC
23:00 68.1 °F 63.4 °F 30.16 in ESE 26.5 mph 26.5 mph 85% 0.00 in OVC
23:05 68.1 °F 63.4 °F 30.16 in ESE 15.0 mph 15.0 mph 85% 0.00 in OVC
23:10 68.1 °F 63.4 °F 30.15 in ESE 15.0 mph 15.0 mph 85% 0.00 in OVC
23:15 68.1 °F 63.4 °F 30.15 in ESE 15.0 mph 15.0 mph 85% 0.00 in OVC
23:20 68.0 °F 63.3 °F 30.15 in ESE 15.0 mph 15.0 mph 85% 0.00 in OVC
23:30 67.9 °F 63.6 °F 30.15 in ESE 15.0 mph 15.0 mph 86% 0.00 in OVC
23:35 67.9 °F 63.6 °F 30.14 in ESE 15.0 mph 15.0 mph 86% 0.00 in OVC
23:40 67.9 °F 63.6 °F 30.14 in ESE 15.0 mph 15.0 mph 86% 0.00 in OVC
23:45 67.7 °F 63.4 °F 30.13 in ESE 15.0 mph 15.0 mph 86% 0.00 in OVC
23:50 67.7 °F 63.4 °F 30.13 in ESE 15.0 mph 15.0 mph 86% 0.00 in OVC
23:55 67.6 °F 63.6 °F 30.13 in ESE 15.0 mph 15.0 mph 87% 0.00 in OVC
Piedmont Bend
Compliments of Weather Underground - 4 mb